• Join FlightAware (Why Join?)
  • Login
  • US Flag 
06:04PM EDT


 

Airport Tracker/Info


-or-


 

Live Flight TrackerFlight Track Log ✈ N556VP ✈ 12-Jun-2013 ✈ KSGR - KMAF

Flight Track Log - Related Links

Times and Time Zones

All times are in EDT time to prevent confusion due to time zone crossing. See the N556VP flight status page for this flight to view local times or setup timezone preferences in your user account.

Time Position Orientation Groundspeed Altitude Reporting Facility
EDT Latitude Longitude Course Direction KTS MPH feet Rate Location/Type
03:57PM 29.6058 -95.6556 197° South 114 131 600  Level Houston Center
03:58PM 29.5081 -95.6908 197° South 300 345 5,600 2,880 Climbing Houston Center
03:59PM 29.5083 -95.6989 272° West 274 315 5,800 2,580 Climbing Houston Center
03:59PM 29.5364 -95.7742 293° West 301 346 8,300 2,460 Climbing Houston Center
04:00PM 29.5425 -95.7811 315° West 292 336 8,400 1,560 Climbing Houston Center
04:00PM 29.5869 -95.8450 309° West 332 382 9,600 1,920 Climbing Houston Center
04:01PM 29.6164 -95.8797 314° West 339 390 10,400 1,560 Climbing Houston Center
04:02PM 29.7003 -95.9422 327° Northwest 368 423 12,000 1,500 Climbing Houston Center
04:03PM 29.7667 -96.0444 307° West 367 422 13,600 1,860 Climbing Houston Center
04:04PM 29.8331 -96.1306 312° West 362 417 15,900 2,520 Climbing Houston Center
04:05PM 29.8919 -96.2147 309° West 343 395 18,900 2,580 Climbing Houston Center
04:06PM 29.9319 -96.3067 297° West 328 377 21,300 1,080 Climbing Houston Center
04:07PM 29.9503 -96.4272 280° West 381 438 21,200 360 Descending Houston Center
04:08PM 29.9561 -96.5597 273° West 413 475 22,100 1,140 Climbing Houston Center
04:09PM 29.9875 -96.7067 284° West 399 459 23,600 1,320 Climbing Houston Center
04:10PM 30.0122 -96.8289 283° West 394 453 24,900 660 Climbing Houston Center
04:11PM 30.0372 -96.9497 283° West 391 450 25,000  Climbing Houston Center
04:12PM 30.0642 -97.0783 284° West 410 472 25,000  Level Houston Center
04:13PM 30.0936 -97.2233 283° West 419 482 25,000  Level Houston Center
04:14PM 30.1197 -97.3550 283° West 416 479 25,000  Level Houston Center
04:15PM 30.1467 -97.4878 283° West 418 481 25,000  Level Houston Center
04:16PM 30.1739 -97.6211 283° West 419 482 25,000 420 Level Houston Center
04:17PM 30.2308 -97.7647 295° West 413 475 25,900 480 Climbing Houston Center
04:18PM 30.2783 -97.8825 295° West 410 472 26,000  Climbing Houston Center
04:19PM 30.3297 -98.0075 295° West 415 478 26,000  Level Houston Center
04:20PM 30.3806 -98.1319 295° West 422 486 26,000  Level Houston Center
04:22PM 30.4314 -98.2581 295° West 426 490 26,000  Level Houston Center
04:23PM 30.4836 -98.3839 296° West 428 493 26,000  Level Houston Center
04:24PM 30.5344 -98.5106 295° West 429 494 26,000  Level Houston Center
04:25PM 30.5842 -98.6367 295° West 427 491 26,000  Level Houston Center
04:26PM 30.6433 -98.7867 295° West 432 497 26,000  Level Houston Center
04:27PM 30.6967 -98.9147 296° West 434 499 26,000  Level Houston Center
04:28PM 30.7458 -99.0442 294° West 434 499 26,000  Level Houston Center
04:29PM 30.7994 -99.1744 296° West 435 501 26,000  Level Houston Center
04:30PM 30.8497 -99.3017 295° West 435 501 26,000  Level Houston Center
04:31PM 30.8989 -99.4303 294° West 436 502 26,000  Level Houston Center
04:32PM 30.9475 -99.5564 294° West 430 495 26,000  Level Houston Center
04:33PM 31.0094 -99.7117 295° West 442 509 26,000  Level Houston Center
04:34PM 31.0597 -99.8386 295° West 433 498 26,000  Level Houston Center
04:35PM 31.1092 -99.9694 294° West 437 503 26,000  Level Houston Center
04:36PM 31.1603 -100.0992 295° West 439 505 26,000  Level Houston Center
04:37PM 31.2106 -100.2294 294° West 443 510 26,000  Level Houston Center
04:38PM 31.2694 -100.3853 294° West 439 505 26,000  Level Houston Center
04:39PM 31.3192 -100.5175 294° West 445 512 26,000  Level Houston Center
04:40PM 31.3817 -100.6861 294° West 438 504 26,000  Level Fort Worth Center
04:41PM 31.4267 -100.7972 295° West 432 497 26,000 -300 Level Fort Worth Center
04:42PM 31.4789 -100.9453 293° West 437 503 25,500 -1,020 Descending Fort Worth Center
04:43PM 31.5314 -101.0764 295° West 442 509 24,000 -1,860 Descending Fort Worth Center
04:44PM 31.5778 -101.2075 293° West 442 509 21,800 -2,160 Descending Fort Worth Center
04:45PM 31.6239 -101.3339 293° West 437 503 19,700 -2,100 Descending Fort Worth Center
04:46PM 31.6703 -101.4528 295° West 425 489 17,700 -2,100 Descending Fort Worth Center
04:47PM 31.7144 -101.5719 294° West 411 473 15,500 -1,800 Descending Fort Worth Center
04:48PM 31.7586 -101.6839 295° West 398 458 14,100 -840 Descending Fort Worth Center
04:49PM 31.8094 -101.7817 301° West 372 428 13,900 -1,200 Descending Fort Worth Center
04:50PM 31.8692 -101.8678 309° West 357 411 11,700 -2,280 Descending Fort Worth Center
04:51PM 31.9331 -101.9517 312° West 344 396 9,400 -2,340 Descending Fort Worth Center
04:52PM 31.9867 -102.0228 312° West 320 368 7,100 -1,740 Descending Fort Worth Center
04:53PM 32.0344 -102.0864 312° West 289 333 6,000 -600 Descending Fort Worth Center
04:54PM 32.0736 -102.1569 303° West 269 310 6,000 -480 Level Fort Worth Center
04:55PM 32.0403 -102.2092 233° Southwest 180 207 5,100 -1,200 Descending Fort Worth Center
04:56PM 31.9922 -102.2117 183° South 135 155 3,700 -1,020 Descending Fort Worth Center
04:57PM 31.9606 -102.2222 196° South 135 155 3,100 -600 Descending Fort Worth Center